createdAt,value
2019-03-21T00:00:20.137Z,11.15
2019-03-21T00:02:49.901Z,11.03
2019-03-21T00:05:19.923Z,10.13
2019-03-21T00:07:49.807Z,12.35
2019-03-21T00:10:57.347Z,10.33
2019-03-21T00:13:27.205Z,10.67
2019-03-21T00:16:00.022Z,10.27
2019-03-21T00:18:29.823Z,12.57
2019-03-21T00:20:59.551Z,11.53
2019-03-21T00:23:29.281Z,10.47
2019-03-21T00:25:59.056Z,11.30
2019-03-21T00:28:28.800Z,11.00
2019-03-21T00:30:58.553Z,11.10
2019-03-21T00:33:28.342Z,10.40
2019-03-21T00:35:58.154Z,12.17
2019-03-21T00:38:28.001Z,13.17
2019-03-21T00:40:57.701Z,11.37
2019-03-21T00:43:27.557Z,11.20
2019-03-21T00:45:57.341Z,14.00
2019-03-21T00:48:27.181Z,10.83
2019-03-21T00:50:56.983Z,13.47
2019-03-21T00:53:26.699Z,11.43
2019-03-21T00:55:56.536Z,13.20
2019-03-21T00:58:26.349Z,15.47
2019-03-21T01:03:22.565Z,17.98
2019-03-21T01:05:52.361Z,17.93
2019-03-21T01:08:22.211Z,19.37
2019-03-21T01:10:52.358Z,19.82
2019-03-21T01:13:22.459Z,16.03
2019-03-21T01:15:52.229Z,19.10
2019-03-21T01:18:24.849Z,16.30
2019-03-21T01:20:54.633Z,19.67
2019-03-21T01:23:24.374Z,18.73
2019-03-21T01:25:55.209Z,19.60
2019-03-21T01:28:25.004Z,21.45
2019-03-21T01:30:54.782Z,16.77
2019-03-21T01:33:24.776Z,18.13
2019-03-21T01:35:54.666Z,22.70
2019-03-21T01:38:24.495Z,19.80
2019-03-21T01:40:54.247Z,20.68
2019-03-21T01:43:24.091Z,21.77
2019-03-21T11:20:41.056Z,11.33
2019-03-21T11:23:10.996Z,11.85
2019-03-21T11:25:40.994Z,10.55
2019-03-21T11:28:14.172Z,12.85
2019-03-21T11:30:45.310Z,14.47
2019-03-21T11:33:17.308Z,13.93
2019-03-21T11:35:51.742Z,12.15
2019-03-21T11:38:27.450Z,8.98
2019-03-21T11:40:59.785Z,10.78
2019-03-21T11:43:32.038Z,13.70
2019-03-21T11:46:05.458Z,15.32
2019-03-21T11:48:35.328Z,12.47
2019-03-21T11:51:05.125Z,10.05
2019-03-21T11:53:34.948Z,11.40
2019-03-21T11:56:06.434Z,12.05
2019-03-21T11:59:07.915Z,12.15
2019-03-21T12:01:46.488Z,11.00
2019-03-21T12:04:17.394Z,13.35
2019-03-21T12:06:47.318Z,12.53
2019-03-21T12:09:21.257Z,12.07
2019-03-21T12:11:51.373Z,13.22
2019-03-21T12:14:21.270Z,14.73
2019-03-21T12:16:51.222Z,12.98
2019-03-21T12:19:21.073Z,14.28
2019-03-21T12:21:50.921Z,12.55
2019-03-21T12:24:20.712Z,14.28
2019-03-21T12:26:50.607Z,13.38
2019-03-21T12:29:20.477Z,12.40
2019-03-21T12:31:50.285Z,12.70
2019-03-21T12:34:20.137Z,13.93
2019-03-21T12:36:50.079Z,14.93
2019-03-21T12:39:20.106Z,10.63
2019-03-21T12:41:49.939Z,15.43
2019-03-21T12:44:19.763Z,12.15
2019-03-21T12:46:49.627Z,13.62
2019-03-21T12:49:19.535Z,13.25
2019-03-21T12:51:49.531Z,14.95
2019-03-21T12:54:19.412Z,16.73
2019-03-21T12:56:49.278Z,13.03
2019-03-21T12:59:19.151Z,12.78
2019-03-21T13:01:49.025Z,12.15
2019-03-21T13:04:18.855Z,12.43
2019-03-21T13:06:48.749Z,13.32
2019-03-21T13:09:18.563Z,16.48
2019-03-21T13:11:48.480Z,14.53
2019-03-21T13:14:18.441Z,15.32
2019-03-21T13:16:48.260Z,13.50
2019-03-21T13:19:18.084Z,14.07
2019-03-21T13:21:47.942Z,15.35
2019-03-21T13:24:19.600Z,13.50
2019-03-21T13:26:49.292Z,15.08
2019-03-21T13:29:19.143Z,13.58
2019-03-21T13:31:49.170Z,21.02
2019-03-21T13:34:19.079Z,17.62
2019-03-21T13:36:48.978Z,13.95
2019-03-21T13:39:18.763Z,12.82
2019-03-21T13:41:48.664Z,14.35
2019-03-21T13:44:18.510Z,13.85
2019-03-21T13:46:48.364Z,15.10
2019-03-21T13:49:18.153Z,16.45
2019-03-21T13:51:47.950Z,17.80
2019-03-21T13:54:17.818Z,13.78
2019-03-21T13:56:47.686Z,17.15
2019-03-21T13:59:17.557Z,13.62
2019-03-21T14:01:47.439Z,14.53
2019-03-21T14:04:17.372Z,14.15
2019-03-21T14:06:47.260Z,16.55
2019-03-21T14:09:17.110Z,14.15
2019-03-21T14:11:47.109Z,14.83
2019-03-21T14:14:17.009Z,15.83
2019-03-21T14:16:46.849Z,15.60
2019-03-21T14:19:16.800Z,16.17
2019-03-21T14:21:46.639Z,14.18
2019-03-21T14:24:16.423Z,14.43
2019-03-21T14:26:46.369Z,15.40
2019-03-21T14:29:16.316Z,19.87
2019-03-21T14:31:46.232Z,17.90
2019-03-21T14:34:16.083Z,18.62
2019-03-21T14:36:45.999Z,21.17
2019-03-21T14:39:15.904Z,19.85
2019-03-21T14:41:45.747Z,19.77
2019-03-21T14:44:15.552Z,21.40
2019-03-21T14:46:45.430Z,19.85
2019-03-21T14:49:15.253Z,16.60
2019-03-21T14:51:48.086Z,19.82
2019-03-21T14:54:17.960Z,19.50
2019-03-21T14:56:47.744Z,15.78
2019-03-21T14:59:17.622Z,19.62
2019-03-21T15:01:47.506Z,20.62
2019-03-21T15:04:17.392Z,22.32
2019-03-21T15:06:47.235Z,21.15
2019-03-21T15:09:17.083Z,20.52
2019-03-21T15:11:47.353Z,19.60
2019-03-21T15:14:17.279Z,22.25
2019-03-21T15:16:47.128Z,19.25
2019-03-21T15:19:16.993Z,25.55
2019-03-21T15:21:46.834Z,20.72
2019-03-21T15:24:16.670Z,19.00
2019-03-21T15:26:46.577Z,21.10
2019-03-21T15:29:16.468Z,19.92
2019-03-21T15:31:46.325Z,18.90
2019-03-21T15:34:16.203Z,20.65
2019-03-21T15:36:46.002Z,20.52
2019-03-21T15:39:15.919Z,21.62
2019-03-21T15:41:45.942Z,23.42
2019-03-21T15:44:15.834Z,26.35
2019-03-21T15:46:45.719Z,22.52
2019-03-21T15:49:15.534Z,22.20
2019-03-21T15:51:45.432Z,24.45
2019-03-21T15:54:15.465Z,25.85
2019-03-21T15:56:45.584Z,21.37
2019-03-21T15:59:15.833Z,21.75
2019-03-21T16:01:46.015Z,21.33
2019-03-21T16:04:16.347Z,25.37
2019-03-21T16:06:46.592Z,21.20
2019-03-21T16:09:16.870Z,20.65
2019-03-21T16:11:47.234Z,24.72
2019-03-21T16:14:17.472Z,28.12
2019-03-21T16:16:47.679Z,22.67
2019-03-21T16:19:17.950Z,24.67
2019-03-21T16:21:48.216Z,23.55
2019-03-21T16:24:18.427Z,26.05
2019-03-21T16:26:48.738Z,23.80
2019-03-21T16:29:18.965Z,25.90
2019-03-21T16:31:49.361Z,24.23
2019-03-21T16:34:19.619Z,21.35
2019-03-21T16:36:49.820Z,23.60
2019-03-21T16:39:20.120Z,24.05
2019-03-21T16:41:50.362Z,24.00
2019-03-21T16:44:20.505Z,25.45
2019-03-21T16:46:50.627Z,24.85
2019-03-21T16:49:20.836Z,24.30
2019-03-21T16:51:50.690Z,22.93
2019-03-21T16:54:20.548Z,28.85
2019-03-21T16:56:50.398Z,25.82
2019-03-21T16:59:20.226Z,20.02
2019-03-21T17:01:50.385Z,23.07
2019-03-21T17:04:20.213Z,21.00
2019-03-21T17:06:50.008Z,26.20
2019-03-21T17:09:19.851Z,22.93
2019-03-21T17:11:49.761Z,23.22
2019-03-21T17:14:19.682Z,23.55
2019-03-21T17:16:49.576Z,23.47
2019-03-21T17:19:19.342Z,23.60
2019-03-21T17:21:49.216Z,23.57
2019-03-21T17:24:28.809Z,22.20
2019-03-21T17:26:50.750Z,23.32
2019-03-21T17:29:20.676Z,24.67
2019-03-21T17:31:50.540Z,20.10
2019-03-21T17:34:20.750Z,26.05
2019-03-21T17:36:50.607Z,22.00
2019-03-21T17:39:20.434Z,21.55
2019-03-21T17:41:50.385Z,20.82
2019-03-21T17:44:20.349Z,22.67
2019-03-21T17:46:50.209Z,21.62
2019-03-21T17:49:20.068Z,24.52
2019-03-21T17:51:49.943Z,23.52
2019-03-21T17:54:19.869Z,28.62
2019-03-21T17:56:49.655Z,23.22
2019-03-21T17:59:19.614Z,22.67
2019-03-21T18:01:49.862Z,23.02
2019-03-21T18:04:19.720Z,21.65
2019-03-21T18:06:49.531Z,20.97
2019-03-21T18:09:19.458Z,22.40
2019-03-21T18:11:50.195Z,20.95
2019-03-21T18:14:20.117Z,22.10
2019-03-21T18:16:49.995Z,22.87
2019-03-21T18:19:19.927Z,23.57
2019-03-21T18:21:49.868Z,20.68
2019-03-21T18:24:19.774Z,23.50
2019-03-21T18:26:49.638Z,20.00
2019-03-21T18:29:19.424Z,23.18
2019-03-21T18:31:49.357Z,23.62
2019-03-21T18:34:19.207Z,24.80
2019-03-21T18:36:49.062Z,25.70
2019-03-21T18:39:18.820Z,22.82
2019-03-21T18:41:48.594Z,25.15
2019-03-21T18:44:18.488Z,29.12
2019-03-21T18:46:48.751Z,27.30
2019-03-21T18:49:18.631Z,26.17
2019-03-21T18:51:48.456Z,27.52
2019-03-21T18:54:18.298Z,24.98
2019-03-21T18:56:48.178Z,25.40
2019-03-21T18:59:18.077Z,27.00
2019-03-21T19:01:57.938Z,24.47
2019-03-21T19:04:19.410Z,29.92
2019-03-21T19:06:49.306Z,27.07
2019-03-21T19:09:19.155Z,28.75
2019-03-21T19:11:49.031Z,25.72
2019-03-21T19:14:18.875Z,29.35
2019-03-21T19:16:48.760Z,28.60
2019-03-21T19:19:18.566Z,27.42
2019-03-21T19:21:51.293Z,23.92
2019-03-21T19:24:21.114Z,25.08
2019-03-21T19:26:50.963Z,24.52
2019-03-21T19:29:20.650Z,23.77
2019-03-21T19:31:50.419Z,24.95
2019-03-21T19:34:20.218Z,26.10
2019-03-21T19:36:50.054Z,27.35
2019-03-21T19:39:19.838Z,24.50
2019-03-21T19:41:49.759Z,28.12
2019-03-21T19:44:19.622Z,26.90
2019-03-21T19:46:49.370Z,30.95
2019-03-21T19:49:19.145Z,28.10
2019-03-21T19:54:51.194Z,28.23
2019-03-21T19:57:22.575Z,28.77
2019-03-21T19:59:52.467Z,28.30
2019-03-21T20:02:22.255Z,25.48
2019-03-21T20:04:52.076Z,29.18
2019-03-21T20:07:21.813Z,27.27
2019-03-21T20:09:51.710Z,28.27
2019-03-21T20:12:21.434Z,26.65
2019-03-21T20:14:51.272Z,34.35
2019-03-21T20:17:21.071Z,35.23
2019-03-21T20:19:50.900Z,29.57
2019-03-21T20:22:20.698Z,32.15
2019-03-21T20:24:50.341Z,28.55
2019-03-21T20:27:20.109Z,30.70
2019-03-21T20:30:51.642Z,27.73
2019-03-21T20:33:21.449Z,30.97
2019-03-21T20:35:51.251Z,29.65
2019-03-21T20:38:21.034Z,29.92
2019-03-21T20:40:50.877Z,39.60
2019-03-21T20:43:20.662Z,29.42
2019-03-21T20:45:50.481Z,29.07
2019-03-21T20:48:27.956Z,89.60
2019-03-21T20:50:58.630Z,68.10
2019-03-21T20:53:28.404Z,32.58
2019-03-21T20:55:58.707Z,32.28
2019-03-21T20:58:28.597Z,23.83
2019-03-21T21:00:58.507Z,28.70
2019-03-21T21:03:28.313Z,29.57
2019-03-21T21:05:58.133Z,27.48
2019-03-21T21:08:28.042Z,27.13
2019-03-21T21:10:58.002Z,22.55
2019-03-21T21:13:27.846Z,27.55
2019-03-21T21:15:57.698Z,26.48
2019-03-21T21:18:27.598Z,27.87
2019-03-21T21:20:57.394Z,33.13
2019-03-21T21:23:27.314Z,26.62
2019-03-21T21:26:05.381Z,27.77
2019-03-21T21:28:28.758Z,27.70
2019-03-21T21:30:58.832Z,33.63
2019-03-21T21:33:28.845Z,26.40
2019-03-21T21:35:58.901Z,34.25
2019-03-21T21:38:28.752Z,30.40
2019-03-21T21:40:59.943Z,26.10
2019-03-21T21:43:29.816Z,28.65
2019-03-21T21:45:59.550Z,28.57
2019-03-21T21:48:29.328Z,25.17
2019-03-21T21:50:59.088Z,28.80
2019-03-21T21:53:28.968Z,26.02
2019-03-21T21:55:58.821Z,27.20
2019-03-21T21:58:47.405Z,30.92
2019-03-21T22:01:17.366Z,23.75
2019-03-21T22:03:47.157Z,26.42
2019-03-21T22:06:17.022Z,28.30
2019-03-21T22:08:46.853Z,27.15
2019-03-21T22:11:16.719Z,23.27
2019-03-21T22:13:46.539Z,27.93
2019-03-21T22:16:16.372Z,32.95
2019-03-21T22:18:46.041Z,32.13
2019-03-21T22:21:15.905Z,28.00
2019-03-21T22:23:45.739Z,25.43
2019-03-21T22:26:15.561Z,28.23
2019-03-21T22:28:45.419Z,27.22
2019-03-21T22:31:15.196Z,31.93
2019-03-21T22:33:45.011Z,29.80
2019-03-21T22:36:14.831Z,29.55
2019-03-21T22:38:44.520Z,30.20
2019-03-21T22:41:14.263Z,33.63
2019-03-21T22:43:44.113Z,26.20
2019-03-21T22:46:13.903Z,28.43
2019-03-21T22:48:43.790Z,25.60
2019-03-21T22:51:13.677Z,31.23
2019-03-21T22:53:43.538Z,26.50
2019-03-21T22:56:13.388Z,25.87
2019-03-21T22:58:43.207Z,25.88
2019-03-21T23:01:12.955Z,27.73
2019-03-21T23:03:43.035Z,29.18
2019-03-21T23:06:12.774Z,28.30
2019-03-21T23:08:42.442Z,26.23
2019-03-21T23:11:12.249Z,29.47
2019-03-21T23:13:42.053Z,29.20
2019-03-21T23:16:11.931Z,27.70
2019-03-21T23:18:41.670Z,26.13
2019-03-21T23:21:11.778Z,29.63
2019-03-21T23:23:41.501Z,31.60
2019-03-21T23:26:11.262Z,25.63
2019-03-21T23:28:41.011Z,29.27
2019-03-21T23:31:10.954Z,29.47
2019-03-21T23:33:40.778Z,25.20
2019-03-21T23:36:10.514Z,30.43
2019-03-21T23:38:40.272Z,26.90
2019-03-21T23:41:10.041Z,32.47
2019-03-21T23:43:39.731Z,28.67
2019-03-21T23:46:09.482Z,28.97
2019-03-21T23:48:39.216Z,25.15
2019-03-21T23:51:09.061Z,27.77
2019-03-21T23:53:38.898Z,31.47
2019-03-21T23:56:08.710Z,28.23
2019-03-21T23:58:38.534Z,28.70
